sensor_id;sensor_type;location;lat;lon;timestamp;P1;durP1;ratioP1;P2;durP2;ratioP2
28934;SDS011;16044;52.726;-2.108;2023-04-25T00:02:24;16.60;;;4.25;;
28934;SDS011;16044;52.726;-2.108;2023-04-25T00:04:52;11.77;;;4.10;;
28934;SDS011;16044;52.726;-2.108;2023-04-25T00:07:19;11.75;;;3.70;;
28934;SDS011;16044;52.726;-2.108;2023-04-25T00:09:47;17.10;;;4.55;;
28934;SDS011;16044;52.726;-2.108;2023-04-25T00:12:14;14.05;;;3.80;;
28934;SDS011;16044;52.726;-2.108;2023-04-25T00:14:42;13.80;;;4.25;;
28934;SDS011;16044;52.726;-2.108;2023-04-25T00:17:09;11.40;;;3.90;;
28934;SDS011;16044;52.726;-2.108;2023-04-25T00:19:35;21.30;;;4.20;;
28934;SDS011;16044;52.726;-2.108;2023-04-25T00:22:04;15.65;;;4.45;;
28934;SDS011;16044;52.726;-2.108;2023-04-25T00:24:32;14.77;;;4.38;;
28934;SDS011;16044;52.726;-2.108;2023-04-25T00:26:59;13.85;;;4.45;;
28934;SDS011;16044;52.726;-2.108;2023-04-25T00:29:26;16.17;;;4.78;;
28934;SDS011;16044;52.726;-2.108;2023-04-25T00:31:53;13.13;;;4.10;;
28934;SDS011;16044;52.726;-2.108;2023-04-25T00:34:19;17.20;;;4.63;;
28934;SDS011;16044;52.726;-2.108;2023-04-25T00:36:46;21.80;;;5.55;;
28934;SDS011;16044;52.726;-2.108;2023-04-25T00:39:14;18.00;;;5.07;;
28934;SDS011;16044;52.726;-2.108;2023-04-25T00:41:42;17.88;;;5.13;;
28934;SDS011;16044;52.726;-2.108;2023-04-25T00:44:09;19.27;;;4.80;;
28934;SDS011;16044;52.726;-2.108;2023-04-25T00:46:38;16.17;;;5.40;;
28934;SDS011;16044;52.726;-2.108;2023-04-25T00:49:06;16.85;;;5.35;;
28934;SDS011;16044;52.726;-2.108;2023-04-25T00:51:33;14.30;;;5.07;;
28934;SDS011;16044;52.726;-2.108;2023-04-25T00:54:00;20.25;;;5.65;;
28934;SDS011;16044;52.726;-2.108;2023-04-25T00:56:28;19.27;;;5.47;;
28934;SDS011;16044;52.726;-2.108;2023-04-25T00:58:55;17.33;;;5.82;;
28934;SDS011;16044;52.726;-2.108;2023-04-25T01:01:23;17.95;;;6.55;;
28934;SDS011;16044;52.726;-2.108;2023-04-25T01:03:50;16.75;;;6.22;;
28934;SDS011;16044;52.726;-2.108;2023-04-25T01:06:21;19.30;;;6.25;;
28934;SDS011;16044;52.726;-2.108;2023-04-25T01:08:48;16.00;;;6.85;;
28934;SDS011;16044;52.726;-2.108;2023-04-25T01:11:15;20.55;;;7.57;;
28934;SDS011;16044;52.726;-2.108;2023-04-25T01:13:43;19.98;;;7.15;;
28934;SDS011;16044;52.726;-2.108;2023-04-25T01:16:10;18.65;;;6.70;;
28934;SDS011;16044;52.726;-2.108;2023-04-25T01:18:38;18.77;;;6.82;;
28934;SDS011;16044;52.726;-2.108;2023-04-25T01:21:07;15.57;;;6.80;;
28934;SDS011;16044;52.726;-2.108;2023-04-25T01:23:39;14.98;;;6.40;;
28934;SDS011;16044;52.726;-2.108;2023-04-25T01:26:08;19.90;;;7.22;;
28934;SDS011;16044;52.726;-2.108;2023-04-25T01:28:38;16.13;;;6.88;;
28934;SDS011;16044;52.726;-2.108;2023-04-25T01:31:07;15.80;;;7.65;;
28934;SDS011;16044;52.726;-2.108;2023-04-25T01:33:35;19.27;;;7.32;;
28934;SDS011;16044;52.726;-2.108;2023-04-25T01:36:02;16.95;;;7.60;;
28934;SDS011;16044;52.726;-2.108;2023-04-25T01:38:30;19.60;;;7.35;;
28934;SDS011;16044;52.726;-2.108;2023-04-25T01:40:58;16.13;;;7.30;;
28934;SDS011;16044;52.726;-2.108;2023-04-25T01:43:25;19.40;;;6.55;;
28934;SDS011;16044;52.726;-2.108;2023-04-25T01:45:53;19.55;;;7.45;;
28934;SDS011;16044;52.726;-2.108;2023-04-25T01:48:20;18.30;;;6.55;;
28934;SDS011;16044;52.726;-2.108;2023-04-25T01:50:47;21.35;;;7.25;;
28934;SDS011;16044;52.726;-2.108;2023-04-25T01:53:14;17.92;;;6.78;;
28934;SDS011;16044;52.726;-2.108;2023-04-25T01:55:41;21.42;;;6.25;;
28934;SDS011;16044;52.726;-2.108;2023-04-25T01:58:09;19.38;;;6.18;;
28934;SDS011;16044;52.726;-2.108;2023-04-25T02:00:39;22.58;;;6.50;;
28934;SDS011;16044;52.726;-2.108;2023-04-25T02:03:07;17.17;;;5.90;;
28934;SDS011;16044;52.726;-2.108;2023-04-25T02:05:38;16.63;;;6.32;;
28934;SDS011;16044;52.726;-2.108;2023-04-25T02:08:07;16.92;;;5.93;;
28934;SDS011;16044;52.726;-2.108;2023-04-25T02:10:35;15.15;;;6.25;;
28934;SDS011;16044;52.726;-2.108;2023-04-25T02:13:03;18.85;;;6.30;;
28934;SDS011;16044;52.726;-2.108;2023-04-25T02:15:31;14.20;;;6.15;;
28934;SDS011;16044;52.726;-2.108;2023-04-25T02:17:58;16.38;;;5.80;;
28934;SDS011;16044;52.726;-2.108;2023-04-25T02:20:29;14.82;;;5.85;;
28934;SDS011;16044;52.726;-2.108;2023-04-25T02:22:56;16.08;;;6.55;;
28934;SDS011;16044;52.726;-2.108;2023-04-25T02:25:24;20.30;;;6.32;;
28934;SDS011;16044;52.726;-2.108;2023-04-25T02:27:51;16.83;;;6.18;;
28934;SDS011;16044;52.726;-2.108;2023-04-25T02:30:18;18.70;;;6.53;;
28934;SDS011;16044;52.726;-2.108;2023-04-25T02:32:45;16.17;;;5.88;;
28934;SDS011;16044;52.726;-2.108;2023-04-25T02:35:13;14.00;;;5.57;;
28934;SDS011;16044;52.726;-2.108;2023-04-25T02:37:40;14.95;;;5.95;;
28934;SDS011;16044;52.726;-2.108;2023-04-25T02:40:07;20.50;;;5.70;;
28934;SDS011;16044;52.726;-2.108;2023-04-25T02:42:35;18.85;;;5.90;;
28934;SDS011;16044;52.726;-2.108;2023-04-25T02:45:02;17.45;;;5.80;;
28934;SDS011;16044;52.726;-2.108;2023-04-25T02:47:30;17.95;;;5.88;;
28934;SDS011;16044;52.726;-2.108;2023-04-25T02:49:58;15.93;;;6.18;;
28934;SDS011;16044;52.726;-2.108;2023-04-25T02:52:24;15.48;;;5.55;;
28934;SDS011;16044;52.726;-2.108;2023-04-25T02:54:52;15.18;;;6.30;;
28934;SDS011;16044;52.726;-2.108;2023-04-25T02:57:19;16.88;;;5.55;;
28934;SDS011;16044;52.726;-2.108;2023-04-25T02:59:46;17.10;;;6.05;;
28934;SDS011;16044;52.726;-2.108;2023-04-25T03:02:13;15.35;;;5.70;;
28934;SDS011;16044;52.726;-2.108;2023-04-25T03:04:40;13.20;;;5.82;;
28934;SDS011;16044;52.726;-2.108;2023-04-25T03:07:07;15.32;;;5.82;;
28934;SDS011;16044;52.726;-2.108;2023-04-25T03:09:34;14.38;;;4.75;;
28934;SDS011;16044;52.726;-2.108;2023-04-25T03:12:01;11.57;;;5.00;;
28934;SDS011;16044;52.726;-2.108;2023-04-25T03:14:28;16.80;;;5.40;;
28934;SDS011;16044;52.726;-2.108;2023-04-25T03:16:55;12.75;;;4.78;;
28934;SDS011;16044;52.726;-2.108;2023-04-25T03:19:22;13.00;;;4.90;;
28934;SDS011;16044;52.726;-2.108;2023-04-25T03:21:50;18.55;;;5.85;;
28934;SDS011;16044;52.726;-2.108;2023-04-25T03:24:16;13.48;;;4.80;;
28934;SDS011;16044;52.726;-2.108;2023-04-25T03:26:43;14.40;;;4.95;;
28934;SDS011;16044;52.726;-2.108;2023-04-25T03:29:10;13.07;;;5.65;;
28934;SDS011;16044;52.726;-2.108;2023-04-25T03:31:38;11.23;;;5.15;;
28934;SDS011;16044;52.726;-2.108;2023-04-25T03:34:05;15.38;;;5.25;;
28934;SDS011;16044;52.726;-2.108;2023-04-25T03:36:32;16.02;;;5.15;;
28934;SDS011;16044;52.726;-2.108;2023-04-25T03:38:59;14.60;;;5.78;;
28934;SDS011;16044;52.726;-2.108;2023-04-25T03:41:26;16.23;;;5.68;;
28934;SDS011;16044;52.726;-2.108;2023-04-25T03:43:53;14.90;;;5.10;;
28934;SDS011;16044;52.726;-2.108;2023-04-25T03:46:19;14.15;;;5.65;;
28934;SDS011;16044;52.726;-2.108;2023-04-25T03:48:46;13.55;;;5.88;;
28934;SDS011;16044;52.726;-2.108;2023-04-25T03:51:13;14.80;;;5.70;;
28934;SDS011;16044;52.726;-2.108;2023-04-25T03:53:40;15.82;;;5.85;;
28934;SDS011;16044;52.726;-2.108;2023-04-25T03:56:07;12.85;;;5.20;;
28934;SDS011;16044;52.726;-2.108;2023-04-25T03:58:34;15.60;;;6.35;;
28934;SDS011;16044;52.726;-2.108;2023-04-25T04:01:01;15.50;;;5.45;;
28934;SDS011;16044;52.726;-2.108;2023-04-25T04:03:34;17.95;;;6.43;;
28934;SDS011;16044;52.726;-2.108;2023-04-25T04:06:03;19.67;;;9.35;;
28934;SDS011;16044;52.726;-2.108;2023-04-25T04:08:32;17.73;;;7.80;;
28934;SDS011;16044;52.726;-2.108;2023-04-25T04:10:59;20.70;;;9.75;;
28934;SDS011;16044;52.726;-2.108;2023-04-25T04:13:27;20.17;;;8.57;;
28934;SDS011;16044;52.726;-2.108;2023-04-25T04:15:55;19.17;;;6.93;;
28934;SDS011;16044;52.726;-2.108;2023-04-25T04:18:22;16.48;;;7.38;;
28934;SDS011;16044;52.726;-2.108;2023-04-25T04:20:49;21.58;;;7.13;;
28934;SDS011;16044;52.726;-2.108;2023-04-25T04:23:16;17.38;;;5.97;;
28934;SDS011;16044;52.726;-2.108;2023-04-25T04:25:43;16.70;;;6.50;;
28934;SDS011;16044;52.726;-2.108;2023-04-25T04:28:10;26.33;;;6.22;;
28934;SDS011;16044;52.726;-2.108;2023-04-25T04:30:38;19.63;;;6.40;;
28934;SDS011;16044;52.726;-2.108;2023-04-25T04:33:05;13.35;;;6.63;;
28934;SDS011;16044;52.726;-2.108;2023-04-25T04:35:33;16.40;;;6.93;;
28934;SDS011;16044;52.726;-2.108;2023-04-25T04:38:00;25.23;;;8.07;;
28934;SDS011;16044;52.726;-2.108;2023-04-25T04:40:27;22.38;;;7.63;;
28934;SDS011;16044;52.726;-2.108;2023-04-25T04:42:54;15.85;;;6.95;;
28934;SDS011;16044;52.726;-2.108;2023-04-25T04:45:23;21.95;;;7.07;;
28934;SDS011;16044;52.726;-2.108;2023-04-25T04:47:50;14.23;;;6.18;;
28934;SDS011;16044;52.726;-2.108;2023-04-25T04:50:17;12.43;;;6.15;;
28934;SDS011;16044;52.726;-2.108;2023-04-25T04:52:44;18.83;;;6.30;;
28934;SDS011;16044;52.726;-2.108;2023-04-25T04:55:11;19.98;;;6.18;;
28934;SDS011;16044;52.726;-2.108;2023-04-25T04:57:38;15.50;;;6.90;;
28934;SDS011;16044;52.726;-2.108;2023-04-25T05:00:06;11.82;;;5.82;;
28934;SDS011;16044;52.726;-2.108;2023-04-25T05:02:37;13.05;;;5.40;;
28934;SDS011;16044;52.726;-2.108;2023-04-25T05:05:05;12.95;;;5.38;;
28934;SDS011;16044;52.726;-2.108;2023-04-25T05:07:34;21.30;;;6.85;;
28934;SDS011;16044;52.726;-2.108;2023-04-25T05:10:01;16.60;;;5.82;;
28934;SDS011;16044;52.726;-2.108;2023-04-25T05:12:29;14.18;;;5.55;;
28934;SDS011;16044;52.726;-2.108;2023-04-25T05:14:57;13.73;;;5.40;;
28934;SDS011;16044;52.726;-2.108;2023-04-25T05:17:24;11.73;;;5.00;;
28934;SDS011;16044;52.726;-2.108;2023-04-25T05:19:51;16.85;;;5.75;;
28934;SDS011;16044;52.726;-2.108;2023-04-25T05:22:18;18.42;;;5.45;;
28934;SDS011;16044;52.726;-2.108;2023-04-25T05:24:45;19.55;;;5.43;;
28934;SDS011;16044;52.726;-2.108;2023-04-25T05:27:12;18.63;;;6.38;;
28934;SDS011;16044;52.726;-2.108;2023-04-25T05:29:39;15.32;;;5.30;;
28934;SDS011;16044;52.726;-2.108;2023-04-25T05:32:06;13.13;;;5.20;;
28934;SDS011;16044;52.726;-2.108;2023-04-25T05:34:34;17.10;;;5.80;;
28934;SDS011;16044;52.726;-2.108;2023-04-25T05:37:01;18.52;;;5.80;;
28934;SDS011;16044;52.726;-2.108;2023-04-25T05:39:28;14.18;;;5.82;;
28934;SDS011;16044;52.726;-2.108;2023-04-25T05:41:55;14.85;;;5.47;;
28934;SDS011;16044;52.726;-2.108;2023-04-25T05:44:22;16.02;;;5.70;;
28934;SDS011;16044;52.726;-2.108;2023-04-25T05:46:49;17.10;;;5.60;;
28934;SDS011;16044;52.726;-2.108;2023-04-25T05:49:16;16.20;;;5.50;;
28934;SDS011;16044;52.726;-2.108;2023-04-25T05:51:44;11.23;;;4.72;;
28934;SDS011;16044;52.726;-2.108;2023-04-25T05:54:11;17.83;;;5.75;;
28934;SDS011;16044;52.726;-2.108;2023-04-25T05:56:38;16.15;;;5.00;;
28934;SDS011;16044;52.726;-2.108;2023-04-25T05:59:05;9.70;;;5.10;;
28934;SDS011;16044;52.726;-2.108;2023-04-25T06:01:32;19.00;;;4.95;;
28934;SDS011;16044;52.726;-2.108;2023-04-25T06:04:00;14.52;;;4.60;;
28934;SDS011;16044;52.726;-2.108;2023-04-25T06:06:28;10.48;;;5.05;;
28934;SDS011;16044;52.726;-2.108;2023-04-25T06:08:55;13.77;;;5.00;;
28934;SDS011;16044;52.726;-2.108;2023-04-25T06:11:22;14.13;;;5.60;;
28934;SDS011;16044;52.726;-2.108;2023-04-25T06:13:49;18.75;;;5.88;;
28934;SDS011;16044;52.726;-2.108;2023-04-25T06:16:16;20.30;;;6.38;;
28934;SDS011;16044;52.726;-2.108;2023-04-25T06:18:43;12.50;;;5.63;;
28934;SDS011;16044;52.726;-2.108;2023-04-25T06:21:11;17.45;;;4.85;;
28934;SDS011;16044;52.726;-2.108;2023-04-25T06:23:38;14.55;;;5.22;;
28934;SDS011;16044;52.726;-2.108;2023-04-25T06:26:08;13.18;;;4.85;;
28934;SDS011;16044;52.726;-2.108;2023-04-25T06:28:35;14.75;;;5.15;;
28934;SDS011;16044;52.726;-2.108;2023-04-25T06:31:02;11.52;;;4.82;;
28934;SDS011;16044;52.726;-2.108;2023-04-25T06:33:30;13.15;;;4.15;;
28934;SDS011;16044;52.726;-2.108;2023-04-25T06:35:57;13.13;;;4.25;;
28934;SDS011;16044;52.726;-2.108;2023-04-25T06:38:24;10.07;;;3.67;;
28934;SDS011;16044;52.726;-2.108;2023-04-25T06:40:51;14.85;;;4.13;;
28934;SDS011;16044;52.726;-2.108;2023-04-25T06:43:18;8.48;;;3.75;;
28934;SDS011;16044;52.726;-2.108;2023-04-25T06:45:45;11.70;;;3.92;;
28934;SDS011;16044;52.726;-2.108;2023-04-25T06:48:13;14.00;;;4.53;;
28934;SDS011;16044;52.726;-2.108;2023-04-25T06:50:40;13.70;;;4.43;;
28934;SDS011;16044;52.726;-2.108;2023-04-25T06:53:08;14.98;;;4.40;;
28934;SDS011;16044;52.726;-2.108;2023-04-25T06:55:35;13.15;;;3.60;;
28934;SDS011;16044;52.726;-2.108;2023-04-25T06:58:02;13.60;;;4.05;;
28934;SDS011;16044;52.726;-2.108;2023-04-25T07:00:29;16.25;;;4.40;;
28934;SDS011;16044;52.726;-2.108;2023-04-25T07:02:57;10.65;;;4.18;;
28934;SDS011;16044;52.726;-2.108;2023-04-25T07:05:25;14.88;;;4.10;;
28934;SDS011;16044;52.726;-2.108;2023-04-25T07:07:51;11.13;;;3.47;;
28934;SDS011;16044;52.726;-2.108;2023-04-25T07:10:18;9.93;;;3.63;;
28934;SDS011;16044;52.726;-2.108;2023-04-25T07:12:47;15.38;;;4.20;;
28934;SDS011;16044;52.726;-2.108;2023-04-25T07:15:14;16.23;;;3.58;;
28934;SDS011;16044;52.726;-2.108;2023-04-25T07:17:42;12.00;;;3.70;;
28934;SDS011;16044;52.726;-2.108;2023-04-25T07:20:09;10.85;;;3.78;;
28934;SDS011;16044;52.726;-2.108;2023-04-25T07:22:37;12.65;;;3.38;;
28934;SDS011;16044;52.726;-2.108;2023-04-25T07:25:04;11.35;;;3.67;;
28934;SDS011;16044;52.726;-2.108;2023-04-25T07:27:32;11.77;;;3.75;;
28934;SDS011;16044;52.726;-2.108;2023-04-25T07:29:59;14.35;;;3.60;;
28934;SDS011;16044;52.726;-2.108;2023-04-25T07:32:26;9.45;;;2.60;;
28934;SDS011;16044;52.726;-2.108;2023-04-25T07:34:53;11.50;;;3.20;;
28934;SDS011;16044;52.726;-2.108;2023-04-25T07:37:20;9.52;;;3.17;;
28934;SDS011;16044;52.726;-2.108;2023-04-25T07:39:48;9.18;;;3.22;;
28934;SDS011;16044;52.726;-2.108;2023-04-25T07:42:15;18.63;;;3.17;;
28934;SDS011;16044;52.726;-2.108;2023-04-25T07:44:42;8.68;;;2.72;;
28934;SDS011;16044;52.726;-2.108;2023-04-25T07:47:09;12.20;;;3.13;;
28934;SDS011;16044;52.726;-2.108;2023-04-25T07:49:37;14.80;;;2.95;;
28934;SDS011;16044;52.726;-2.108;2023-04-25T07:52:04;8.68;;;2.65;;
28934;SDS011;16044;52.726;-2.108;2023-04-25T07:54:32;10.68;;;2.83;;
28934;SDS011;16044;52.726;-2.108;2023-04-25T07:56:59;10.68;;;3.15;;
28934;SDS011;16044;52.726;-2.108;2023-04-25T07:59:27;7.75;;;2.47;;
28934;SDS011;16044;52.726;-2.108;2023-04-25T08:01:55;14.18;;;2.92;;
28934;SDS011;16044;52.726;-2.108;2023-04-25T08:04:24;9.18;;;2.72;;
28934;SDS011;16044;52.726;-2.108;2023-04-25T08:06:52;8.48;;;2.42;;
28934;SDS011;16044;52.726;-2.108;2023-04-25T08:09:20;7.38;;;2.60;;
28934;SDS011;16044;52.726;-2.108;2023-04-25T08:11:47;9.70;;;2.63;;
28934;SDS011;16044;52.726;-2.108;2023-04-25T08:14:15;10.95;;;2.40;;
28934;SDS011;16044;52.726;-2.108;2023-04-25T08:16:41;8.23;;;2.15;;
28934;SDS011;16044;52.726;-2.108;2023-04-25T08:19:09;7.85;;;2.20;;
28934;SDS011;16044;52.726;-2.108;2023-04-25T08:21:37;8.23;;;2.20;;
28934;SDS011;16044;52.726;-2.108;2023-04-25T08:24:04;8.38;;;2.30;;
28934;SDS011;16044;52.726;-2.108;2023-04-25T08:26:32;9.35;;;2.55;;
28934;SDS011;16044;52.726;-2.108;2023-04-25T08:29:00;10.45;;;3.20;;
28934;SDS011;16044;52.726;-2.108;2023-04-25T08:31:27;11.55;;;2.78;;
28934;SDS011;16044;52.726;-2.108;2023-04-25T08:33:54;8.30;;;2.38;;
28934;SDS011;16044;52.726;-2.108;2023-04-25T08:36:21;9.20;;;2.30;;
28934;SDS011;16044;52.726;-2.108;2023-04-25T08:39:03;7.90;;;1.90;;
28934;SDS011;16044;52.726;-2.108;2023-04-25T08:41:30;8.02;;;1.80;;
28934;SDS011;16044;52.726;-2.108;2023-04-25T08:43:58;7.57;;;1.88;;
28934;SDS011;16044;52.726;-2.108;2023-04-25T08:46:27;8.85;;;2.05;;
28934;SDS011;16044;52.726;-2.108;2023-04-25T08:49:00;9.73;;;2.05;;
28934;SDS011;16044;52.726;-2.108;2023-04-25T08:51:30;7.63;;;1.80;;
28934;SDS011;16044;52.726;-2.108;2023-04-25T08:54:08;7.55;;;1.88;;
28934;SDS011;16044;52.726;-2.108;2023-04-25T08:56:41;8.77;;;2.00;;
28934;SDS011;16044;52.726;-2.108;2023-04-25T08:59:12;12.30;;;2.70;;
28934;SDS011;16044;52.726;-2.108;2023-04-25T09:01:39;10.02;;;1.80;;
28934;SDS011;16044;52.726;-2.108;2023-04-25T09:04:07;9.65;;;2.30;;
28934;SDS011;16044;52.726;-2.108;2023-04-25T09:06:34;10.50;;;2.80;;
28934;SDS011;16044;52.726;-2.108;2023-04-25T09:09:03;9.15;;;2.28;;
28934;SDS011;16044;52.726;-2.108;2023-04-25T09:11:32;8.90;;;2.28;;
28934;SDS011;16044;52.726;-2.108;2023-04-25T09:14:10;6.10;;;2.00;;
28934;SDS011;16044;52.726;-2.108;2023-04-25T09:16:57;7.50;;;2.05;;
28934;SDS011;16044;52.726;-2.108;2023-04-25T09:19:28;6.43;;;1.77;;
28934;SDS011;16044;52.726;-2.108;2023-04-25T09:22:06;11.13;;;1.95;;
28934;SDS011;16044;52.726;-2.108;2023-04-25T09:24:41;14.13;;;2.15;;
28934;SDS011;16044;52.726;-2.108;2023-04-25T09:27:13;8.70;;;2.30;;
28934;SDS011;16044;52.726;-2.108;2023-04-25T09:29:46;5.00;;;1.77;;
28934;SDS011;16044;52.726;-2.108;2023-04-25T09:32:15;5.97;;;2.13;;
28934;SDS011;16044;52.726;-2.108;2023-04-25T09:34:50;7.97;;;1.73;;
28934;SDS011;16044;52.726;-2.108;2023-04-25T09:37:20;10.30;;;1.65;;
28934;SDS011;16044;52.726;-2.108;2023-04-25T09:39:55;6.63;;;1.95;;
28934;SDS011;16044;52.726;-2.108;2023-04-25T09:42:31;8.23;;;1.90;;
28934;SDS011;16044;52.726;-2.108;2023-04-25T09:45:01;6.80;;;2.00;;
28934;SDS011;16044;52.726;-2.108;2023-04-25T09:47:30;7.80;;;1.73;;
28934;SDS011;16044;52.726;-2.108;2023-04-25T09:49:57;6.72;;;1.98;;
28934;SDS011;16044;52.726;-2.108;2023-04-25T09:52:24;6.38;;;1.73;;
28934;SDS011;16044;52.726;-2.108;2023-04-25T09:54:52;9.02;;;2.20;;
28934;SDS011;16044;52.726;-2.108;2023-04-25T09:57:20;5.38;;;1.80;;
28934;SDS011;16044;52.726;-2.108;2023-04-25T09:59:50;6.22;;;2.10;;
28934;SDS011;16044;52.726;-2.108;2023-04-25T10:02:24;5.43;;;2.10;;
28934;SDS011;16044;52.726;-2.108;2023-04-25T10:04:54;7.15;;;1.98;;
28934;SDS011;16044;52.726;-2.108;2023-04-25T10:07:23;10.35;;;2.33;;
28934;SDS011;16044;52.726;-2.108;2023-04-25T10:09:54;6.35;;;2.15;;
28934;SDS011;16044;52.726;-2.108;2023-04-25T10:12:28;5.82;;;2.10;;
28934;SDS011;16044;52.726;-2.108;2023-04-25T10:14:57;6.57;;;2.20;;
28934;SDS011;16044;52.726;-2.108;2023-04-25T10:17:26;9.18;;;2.35;;
28934;SDS011;16044;52.726;-2.108;2023-04-25T10:19:56;7.43;;;2.55;;
28934;SDS011;16044;52.726;-2.108;2023-04-25T10:22:32;7.82;;;2.10;;
28934;SDS011;16044;52.726;-2.108;2023-04-25T10:25:03;7.72;;;2.10;;
28934;SDS011;16044;52.726;-2.108;2023-04-25T10:27:32;6.65;;;2.38;;
28934;SDS011;16044;52.726;-2.108;2023-04-25T10:30:02;9.13;;;2.40;;
28934;SDS011;16044;52.726;-2.108;2023-04-25T10:32:42;7.13;;;2.00;;
28934;SDS011;16044;52.726;-2.108;2023-04-25T10:35:24;7.43;;;2.10;;
28934;SDS011;16044;52.726;-2.108;2023-04-25T10:37:57;6.68;;;2.00;;
28934;SDS011;16044;52.726;-2.108;2023-04-25T10:40:25;8.20;;;1.60;;
28934;SDS011;16044;52.726;-2.108;2023-04-25T10:42:54;5.90;;;2.30;;
28934;SDS011;16044;52.726;-2.108;2023-04-25T10:45:22;6.97;;;1.83;;
28934;SDS011;16044;52.726;-2.108;2023-04-25T10:47:49;5.20;;;1.50;;
28934;SDS011;16044;52.726;-2.108;2023-04-25T10:50:17;8.48;;;1.85;;
28934;SDS011;16044;52.726;-2.108;2023-04-25T10:52:44;4.63;;;1.65;;
28934;SDS011;16044;52.726;-2.108;2023-04-25T10:55:11;5.55;;;1.63;;
28934;SDS011;16044;52.726;-2.108;2023-04-25T10:57:40;7.63;;;2.17;;
28934;SDS011;16044;52.726;-2.108;2023-04-25T11:00:08;5.43;;;1.63;;
28934;SDS011;16044;52.726;-2.108;2023-04-25T11:02:46;6.72;;;1.80;;
28934;SDS011;16044;52.726;-2.108;2023-04-25T11:05:20;8.35;;;1.98;;
28934;SDS011;16044;52.726;-2.108;2023-04-25T11:08:09;7.32;;;1.85;;
28934;SDS011;16044;52.726;-2.108;2023-04-25T11:10:38;6.45;;;2.20;;
28934;SDS011;16044;52.726;-2.108;2023-04-25T11:13:06;5.70;;;1.80;;
28934;SDS011;16044;52.726;-2.108;2023-04-25T11:15:33;5.90;;;1.90;;
28934;SDS011;16044;52.726;-2.108;2023-04-25T11:18:00;3.88;;;1.73;;
28934;SDS011;16044;52.726;-2.108;2023-04-25T11:20:28;8.05;;;2.00;;
28934;SDS011;16044;52.726;-2.108;2023-04-25T11:22:58;5.85;;;1.85;;
28934;SDS011;16044;52.726;-2.108;2023-04-25T11:25:29;7.40;;;1.73;;
28934;SDS011;16044;52.726;-2.108;2023-04-25T11:27:57;5.65;;;1.70;;
28934;SDS011;16044;52.726;-2.108;2023-04-25T11:30:27;6.03;;;1.60;;
28934;SDS011;16044;52.726;-2.108;2023-04-25T11:32:57;6.63;;;1.48;;
28934;SDS011;16044;52.726;-2.108;2023-04-25T11:35:24;6.75;;;1.75;;
28934;SDS011;16044;52.726;-2.108;2023-04-25T11:37:52;6.25;;;1.30;;
28934;SDS011;16044;52.726;-2.108;2023-04-25T11:40:19;4.28;;;1.30;;
28934;SDS011;16044;52.726;-2.108;2023-04-25T11:42:46;5.38;;;2.25;;
28934;SDS011;16044;52.726;-2.108;2023-04-25T11:45:14;7.85;;;2.17;;
28934;SDS011;16044;52.726;-2.108;2023-04-25T11:47:42;6.05;;;1.70;;
28934;SDS011;16044;52.726;-2.108;2023-04-25T11:50:09;5.28;;;1.42;;
28934;SDS011;16044;52.726;-2.108;2023-04-25T11:52:40;4.47;;;1.70;;
28934;SDS011;16044;52.726;-2.108;2023-04-25T11:55:13;6.70;;;1.50;;
28934;SDS011;16044;52.726;-2.108;2023-04-25T11:57:44;6.93;;;1.50;;
28934;SDS011;16044;52.726;-2.108;2023-04-25T12:00:17;4.78;;;1.45;;
28934;SDS011;16044;52.726;-2.108;2023-04-25T12:02:47;4.70;;;1.50;;
28934;SDS011;16044;52.726;-2.108;2023-04-25T12:05:21;4.57;;;1.50;;
28934;SDS011;16044;52.726;-2.108;2023-04-25T12:08:09;5.00;;;1.60;;
28934;SDS011;16044;52.726;-2.108;2023-04-25T12:10:39;4.97;;;1.70;;
28934;SDS011;16044;52.726;-2.108;2023-04-25T12:13:20;7.22;;;1.42;;
28934;SDS011;16044;52.726;-2.108;2023-04-25T12:15:54;4.03;;;1.73;;
28934;SDS011;16044;52.726;-2.108;2023-04-25T12:18:23;4.50;;;1.50;;
28934;SDS011;16044;52.726;-2.108;2023-04-25T12:20:54;6.07;;;1.98;;
28934;SDS011;16044;52.726;-2.108;2023-04-25T12:23:25;5.88;;;1.63;;
28934;SDS011;16044;52.726;-2.108;2023-04-25T12:25:55;5.72;;;1.75;;
28934;SDS011;16044;52.726;-2.108;2023-04-25T12:28:23;3.30;;;1.45;;
28934;SDS011;16044;52.726;-2.108;2023-04-25T12:30:54;5.43;;;1.60;;
28934;SDS011;16044;52.726;-2.108;2023-04-25T12:33:23;5.50;;;1.75;;
28934;SDS011;16044;52.726;-2.108;2023-04-25T12:35:51;11.25;;;2.17;;
28934;SDS011;16044;52.726;-2.108;2023-04-25T12:40:58;4.68;;;1.77;;
28934;SDS011;16044;52.726;-2.108;2023-04-25T12:43:25;4.72;;;1.75;;
28934;SDS011;16044;52.726;-2.108;2023-04-25T12:45:52;7.03;;;1.70;;
28934;SDS011;16044;52.726;-2.108;2023-04-25T12:48:21;6.15;;;2.00;;
28934;SDS011;16044;52.726;-2.108;2023-04-25T12:50:50;4.93;;;1.98;;
28934;SDS011;16044;52.726;-2.108;2023-04-25T12:53:19;8.32;;;2.00;;
28934;SDS011;16044;52.726;-2.108;2023-04-25T12:55:47;6.80;;;2.03;;
28934;SDS011;16044;52.726;-2.108;2023-04-25T12:58:15;6.00;;;1.83;;
28934;SDS011;16044;52.726;-2.108;2023-04-25T13:00:44;8.05;;;2.47;;
28934;SDS011;16044;52.726;-2.108;2023-04-25T13:03:12;6.75;;;1.95;;
28934;SDS011;16044;52.726;-2.108;2023-04-25T13:05:40;5.65;;;1.83;;
28934;SDS011;16044;52.726;-2.108;2023-04-25T13:08:08;11.10;;;1.90;;
28934;SDS011;16044;52.726;-2.108;2023-04-25T13:10:35;7.82;;;2.20;;
28934;SDS011;16044;52.726;-2.108;2023-04-25T13:13:03;10.05;;;3.55;;
28934;SDS011;16044;52.726;-2.108;2023-04-25T13:15:30;11.57;;;4.40;;
28934;SDS011;16044;52.726;-2.108;2023-04-25T13:17:57;6.97;;;2.80;;
28934;SDS011;16044;52.726;-2.108;2023-04-25T13:20:24;5.40;;;2.22;;
28934;SDS011;16044;52.726;-2.108;2023-04-25T13:22:51;6.57;;;2.00;;
28934;SDS011;16044;52.726;-2.108;2023-04-25T13:25:18;5.32;;;2.40;;
28934;SDS011;16044;52.726;-2.108;2023-04-25T13:27:45;5.82;;;2.00;;
28934;SDS011;16044;52.726;-2.108;2023-04-25T13:30:13;6.50;;;2.05;;
28934;SDS011;16044;52.726;-2.108;2023-04-25T13:32:40;5.70;;;2.00;;
28934;SDS011;16044;52.726;-2.108;2023-04-25T13:35:09;8.75;;;2.20;;
28934;SDS011;16044;52.726;-2.108;2023-04-25T13:37:38;6.18;;;1.92;;
28934;SDS011;16044;52.726;-2.108;2023-04-25T13:40:07;6.25;;;2.40;;
28934;SDS011;16044;52.726;-2.108;2023-04-25T13:42:36;6.40;;;2.15;;
28934;SDS011;16044;52.726;-2.108;2023-04-25T13:45:04;5.97;;;2.15;;
28934;SDS011;16044;52.726;-2.108;2023-04-25T13:47:33;9.27;;;2.50;;
28934;SDS011;16044;52.726;-2.108;2023-04-25T13:50:01;6.80;;;2.65;;
28934;SDS011;16044;52.726;-2.108;2023-04-25T13:52:30;6.93;;;2.65;;
28934;SDS011;16044;52.726;-2.108;2023-04-25T13:54:57;8.45;;;3.00;;
28934;SDS011;16044;52.726;-2.108;2023-04-25T13:57:25;7.60;;;2.45;;
28934;SDS011;16044;52.726;-2.108;2023-04-25T13:59:52;7.57;;;2.55;;
28934;SDS011;16044;52.726;-2.108;2023-04-25T14:02:20;8.00;;;2.55;;
28934;SDS011;16044;52.726;-2.108;2023-04-25T14:04:47;5.70;;;2.60;;
28934;SDS011;16044;52.726;-2.108;2023-04-25T14:07:14;7.13;;;2.63;;
28934;SDS011;16044;52.726;-2.108;2023-04-25T14:09:43;5.03;;;2.50;;
28934;SDS011;16044;52.726;-2.108;2023-04-25T14:12:10;6.43;;;2.30;;
28934;SDS011;16044;52.726;-2.108;2023-04-25T14:14:37;7.53;;;2.80;;
28934;SDS011;16044;52.726;-2.108;2023-04-25T14:17:04;7.25;;;2.53;;
28934;SDS011;16044;52.726;-2.108;2023-04-25T14:19:31;5.82;;;2.58;;
28934;SDS011;16044;52.726;-2.108;2023-04-25T14:21:58;6.57;;;2.75;;
28934;SDS011;16044;52.726;-2.108;2023-04-25T14:24:28;6.80;;;2.67;;
28934;SDS011;16044;52.726;-2.108;2023-04-25T14:26:56;9.27;;;2.88;;
28934;SDS011;16044;52.726;-2.108;2023-04-25T14:29:23;8.35;;;3.08;;
28934;SDS011;16044;52.726;-2.108;2023-04-25T14:31:49;7.63;;;2.72;;
28934;SDS011;16044;52.726;-2.108;2023-04-25T14:34:16;8.45;;;2.80;;
28934;SDS011;16044;52.726;-2.108;2023-04-25T14:36:43;5.65;;;2.92;;